Time;durP1;ratioP1;P1;durP2;ratioP2;P2;SDS_P1;SDS_P2;PMS_P1;PMS_P2;Temp;Humidity;BMP_temperature;BMP_pressure;BME280_temperature;BME280_humidity;BME280_pressure;Samples;Min_cycle;Max_cycle;Signal;HPM_P1;HPM_P2
2024/04/22 00:01:13;;;;;;;0.50;0.50;;;;;;;;;;5377875;26;20263;-91
2024/04/22 00:03:39;;;;;;;0.40;0.40;;;;;;;;;;5423525;26;20271;-91
2024/04/22 00:06:05;;;;;;;0.50;0.50;;;;;;;;;;5407471;26;20277;-91
2024/04/22 00:08:31;;;;;;;0.70;0.70;;;;;;;;;;5379891;26;20272;-91
2024/04/22 00:11:04;;;;;;;0.70;0.70;;;;;;;;;;5385868;26;20299;-91
2024/04/22 00:13:31;;;;;;;0.60;0.60;;;;;;;;;;5392815;26;20263;-91
2024/04/22 00:15:57;;;;;;;0.73;0.50;;;;;;;;;;5368533;26;20270;-92
2024/04/22 00:18:27;;;;;;;0.60;0.60;;;;;;;;;;5422769;26;20267;-92
2024/04/22 00:20:53;;;;;;;0.87;0.87;;;;;;;;;;5422782;26;20285;-91
2024/04/22 00:23:20;;;;;;;0.30;0.30;;;;;;;;;;5408962;26;20304;-92
2024/04/22 00:25:52;;;;;;;0.63;0.63;;;;;;;;;;5406995;26;20255;-92
2024/04/22 00:28:18;;;;;;;0.33;0.33;;;;;;;;;;5416167;26;20670;-91
2024/04/22 00:30:44;;;;;;;0.33;0.33;;;;;;;;;;5378970;26;20259;-92
2024/04/22 00:33:10;;;;;;;1.23;0.60;;;;;;;;;;5396316;26;20277;-92
2024/04/22 00:35:38;;;;;;;0.50;0.50;;;;;;;;;;5398694;26;20249;-92
2024/04/22 00:38:04;;;;;;;1.33;1.23;;;;;;;;;;5368199;26;20728;-93
2024/04/22 00:40:33;;;;;;;0.30;0.30;;;;;;;;;;5338690;26;20287;-92
2024/04/22 00:43:02;;;;;;;0.40;0.40;;;;;;;;;;5311396;26;20267;-92
2024/04/22 00:45:31;;;;;;;0.30;0.30;;;;;;;;;;5328850;26;20260;-92
2024/04/22 00:47:57;;;;;;;1.10;1.10;;;;;;;;;;5301696;26;20240;-92
2024/04/22 00:50:24;;;;;;;0.40;0.40;;;;;;;;;;5310486;26;20267;-93
2024/04/22 00:52:54;;;;;;;0.70;0.70;;;;;;;;;;5311624;26;20366;-93
2024/04/22 00:55:20;;;;;;;0.30;0.30;;;;;;;;;;5275018;26;20265;-92
2024/04/22 00:57:49;;;;;;;0.93;0.60;;;;;;;;;;5272626;26;20260;-92
2024/04/22 01:00:18;;;;;;;0.20;0.20;;;;;;;;;;5282969;26;20249;-92
2024/04/22 01:02:54;;;;;;;0.30;0.30;;;;;;;;;;5350512;26;20251;-90
2024/04/22 01:05:20;;;;;;;0.53;0.53;;;;;;;;;;5350258;26;20365;-89
2024/04/22 01:07:51;;;;;;;0.30;0.30;;;;;;;;;;5349891;26;20265;-88
2024/04/22 01:10:18;;;;;;;0.53;0.53;;;;;;;;;;5349189;26;20357;-90
2024/04/22 01:12:44;;;;;;;0.73;0.73;;;;;;;;;;5320789;26;20302;-90
2024/04/22 01:15:10;;;;;;;0.33;0.33;;;;;;;;;;5321104;26;20314;-90
2024/04/22 01:17:42;;;;;;;0.43;0.43;;;;;;;;;;5350698;26;20263;-89
2024/04/22 01:20:11;;;;;;;0.63;0.63;;;;;;;;;;5275116;27;20689;-89
2024/04/22 01:22:38;;;;;;;0.30;0.30;;;;;;;;;;5218997;27;20301;-88
2024/04/22 01:25:05;;;;;;;0.40;0.40;;;;;;;;;;5218828;27;20267;-88
2024/04/22 01:27:32;;;;;;;0.63;0.63;;;;;;;;;;5217669;27;20314;-91
2024/04/22 01:29:58;;;;;;;0.27;0.27;;;;;;;;;;5219687;27;20777;-89
2024/04/22 01:32:27;;;;;;;0.80;0.80;;;;;;;;;;5218654;27;20267;-89
2024/04/22 01:34:57;;;;;;;0.40;0.40;;;;;;;;;;5246301;27;20683;-89
2024/04/22 01:37:31;;;;;;;0.33;0.33;;;;;;;;;;5219565;27;20275;-88
2024/04/22 01:39:57;;;;;;;0.43;0.43;;;;;;;;;;5219340;27;20263;-89
2024/04/22 01:42:24;;;;;;;0.70;0.70;;;;;;;;;;5219432;27;20319;-89
2024/04/22 01:44:50;;;;;;;0.40;0.40;;;;;;;;;;5247489;27;20682;-92
2024/04/22 01:47:16;;;;;;;0.20;0.20;;;;;;;;;;5229392;27;20756;-90
2024/04/22 01:49:43;;;;;;;0.30;0.30;;;;;;;;;;5304953;26;20261;-91
2024/04/22 01:52:11;;;;;;;0.40;0.40;;;;;;;;;;5435043;26;20255;-89
2024/04/22 01:54:37;;;;;;;0.30;0.30;;;;;;;;;;5415670;26;20267;-90
2024/04/22 01:57:04;;;;;;;0.60;0.60;;;;;;;;;;5385605;26;20235;-88
2024/04/22 01:59:33;;;;;;;0.93;0.93;;;;;;;;;;5386475;26;20235;-89
2024/04/22 02:02:01;;;;;;;0.40;0.40;;;;;;;;;;5385411;26;20305;-90
2024/04/22 02:04:27;;;;;;;0.27;0.27;;;;;;;;;;5385593;26;20263;-90
2024/04/22 02:06:58;;;;;;;0.60;0.60;;;;;;;;;;5387063;26;20266;-89
2024/04/22 02:09:34;;;;;;;0.37;0.37;;;;;;;;;;5387649;26;20259;-88
2024/04/22 02:12:01;;;;;;;0.40;0.40;;;;;;;;;;5386975;26;20262;-88
2024/04/22 02:14:27;;;;;;;0.50;0.50;;;;;;;;;;5417403;26;20723;-88
2024/04/22 02:16:58;;;;;;;0.20;0.20;;;;;;;;;;5386976;26;20302;-89
2024/04/22 02:19:26;;;;;;;0.87;0.67;;;;;;;;;;5387353;26;20718;-88
2024/04/22 02:21:52;;;;;;;1.33;1.23;;;;;;;;;;5377347;26;20259;-89
2024/04/22 02:24:18;;;;;;;0.40;0.40;;;;;;;;;;5386450;26;20279;-90
2024/04/22 02:26:49;;;;;;;0.50;0.50;;;;;;;;;;5387080;26;20231;-89
2024/04/22 02:29:23;;;;;;;0.57;0.57;;;;;;;;;;5415797;26;20270;-90
2024/04/22 02:31:49;;;;;;;0.40;0.40;;;;;;;;;;5386341;26;20267;-90
2024/04/22 02:34:17;;;;;;;0.53;0.53;;;;;;;;;;5376282;26;20258;-89
2024/04/22 02:36:48;;;;;;;0.40;0.40;;;;;;;;;;5387007;26;20311;-89
2024/04/22 02:39:17;;;;;;;0.37;0.37;;;;;;;;;;5390369;26;20327;-89
2024/04/22 02:41:43;;;;;;;0.20;0.20;;;;;;;;;;5391129;26;20231;-89
2024/04/22 02:44:14;;;;;;;0.20;0.20;;;;;;;;;;5419275;26;20259;-89
2024/04/22 02:46:40;;;;;;;0.33;0.33;;;;;;;;;;5352782;26;20267;-89
2024/04/22 02:49:06;;;;;;;1.23;0.50;;;;;;;;;;5389470;26;20270;-91
2024/04/22 02:51:35;;;;;;;0.37;0.37;;;;;;;;;;5388453;26;20267;-89
2024/04/22 02:54:04;;;;;;;0.33;0.30;;;;;;;;;;5417735;26;20327;-93
2024/04/22 02:56:30;;;;;;;0.50;0.50;;;;;;;;;;5388899;26;20236;-89
2024/04/22 02:58:56;;;;;;;0.43;0.43;;;;;;;;;;5388542;26;20462;-89
2024/04/22 03:01:22;;;;;;;0.20;0.20;;;;;;;;;;5417716;26;20302;-91
2024/04/22 03:03:48;;;;;;;0.30;0.30;;;;;;;;;;5418108;26;20301;-89
2024/04/22 03:06:14;;;;;;;0.30;0.30;;;;;;;;;;5388367;26;20270;-90
2024/04/22 03:08:42;;;;;;;0.40;0.40;;;;;;;;;;5418413;26;20231;-91
2024/04/22 03:11:08;;;;;;;0.47;0.47;;;;;;;;;;5417975;26;20267;-92
2024/04/22 03:13:34;;;;;;;0.33;0.33;;;;;;;;;;5417527;26;20295;-90
2024/04/22 03:16:00;;;;;;;0.30;0.30;;;;;;;;;;5387879;26;20766;-90
2024/04/22 03:18:28;;;;;;;0.20;0.20;;;;;;;;;;5382002;26;20254;-90
2024/04/22 03:20:57;;;;;;;1.60;1.13;;;;;;;;;;5388656;26;20691;-89
2024/04/22 03:23:23;;;;;;;0.20;0.20;;;;;;;;;;5387810;26;20298;-88
2024/04/22 03:25:49;;;;;;;0.63;0.40;;;;;;;;;;5388173;26;20326;-92
2024/04/22 03:28:18;;;;;;;0.37;0.37;;;;;;;;;;5388609;26;20298;-89
2024/04/22 03:30:44;;;;;;;0.40;0.40;;;;;;;;;;5388069;26;20363;-92
2024/04/22 03:33:15;;;;;;;0.40;0.40;;;;;;;;;;5388073;26;20227;-89
2024/04/22 03:35:42;;;;;;;7.83;0.67;;;;;;;;;;5359626;26;20308;-90
2024/04/22 03:38:08;;;;;;;0.20;0.20;;;;;;;;;;5387020;26;20292;-92
2024/04/22 03:40:34;;;;;;;1.90;0.87;;;;;;;;;;5387422;26;20290;-90
2024/04/22 03:43:00;;;;;;;0.30;0.30;;;;;;;;;;5387479;26;20657;-89
2024/04/22 03:45:26;;;;;;;0.30;0.30;;;;;;;;;;5386838;26;20359;-92
2024/04/22 03:50:40;;;;;;;0.30;0.30;;;;;;;;;;5416509;26;20663;-90
2024/04/22 03:53:07;;;;;;;1.40;1.13;;;;;;;;;;5386821;26;20392;-90
2024/04/22 03:55:34;;;;;;;0.20;0.20;;;;;;;;;;5386765;26;20259;-90
2024/04/22 03:58:00;;;;;;;0.50;0.50;;;;;;;;;;5386817;26;20259;-90
2024/04/22 04:00:26;;;;;;;0.30;0.30;;;;;;;;;;5386682;26;20266;-90
2024/04/22 04:02:58;;;;;;;0.60;0.60;;;;;;;;;;5387664;26;20282;-90
2024/04/22 04:05:24;;;;;;;1.40;0.93;;;;;;;;;;5416530;26;20369;-93
2024/04/22 04:07:51;;;;;;;0.50;0.50;;;;;;;;;;5387209;26;20267;-89
2024/04/22 04:10:17;;;;;;;0.40;0.40;;;;;;;;;;5357953;26;20598;-91
2024/04/22 04:12:43;;;;;;;0.47;0.47;;;;;;;;;;5387218;26;20297;-92
2024/04/22 04:15:10;;;;;;;1.03;0.93;;;;;;;;;;5358268;26;20257;-90
2024/04/22 04:17:54;;;;;;;0.57;0.30;;;;;;;;;;5387673;26;20247;-91
2024/04/22 04:20:22;;;;;;;0.40;0.40;;;;;;;;;;5386662;26;20722;-90
2024/04/22 04:22:49;;;;;;;0.87;0.63;;;;;;;;;;5415763;26;20259;-91
2024/04/22 04:25:15;;;;;;;0.57;0.57;;;;;;;;;;5386025;26;20264;-90
2024/04/22 04:27:41;;;;;;;0.57;0.57;;;;;;;;;;5386271;26;20742;-90
2024/04/22 04:30:07;;;;;;;0.87;0.87;;;;;;;;;;5386895;26;20320;-91
2024/04/22 04:32:36;;;;;;;0.93;0.93;;;;;;;;;;5416668;26;20228;-89
2024/04/22 04:35:02;;;;;;;2.20;0.57;;;;;;;;;;5357680;26;20259;-90
2024/04/22 04:37:29;;;;;;;0.63;0.63;;;;;;;;;;5386230;26;20301;-92
2024/04/22 04:39:55;;;;;;;0.40;0.40;;;;;;;;;;5415752;26;20360;-90
2024/04/22 04:42:21;;;;;;;0.80;0.80;;;;;;;;;;5415860;26;20625;-91
2024/04/22 04:44:47;;;;;;;0.50;0.50;;;;;;;;;;5386881;26;20364;-92
2024/04/22 04:47:15;;;;;;;2.27;0.43;;;;;;;;;;5386224;26;20267;-91
2024/04/22 04:49:45;;;;;;;0.53;0.53;;;;;;;;;;5357591;26;20291;-90
2024/04/22 04:52:11;;;;;;;0.30;0.30;;;;;;;;;;5349618;26;20256;-89
2024/04/22 04:54:46;;;;;;;0.40;0.40;;;;;;;;;;5320777;26;20294;-91
2024/04/22 04:57:14;;;;;;;1.10;0.67;;;;;;;;;;5349498;26;20272;-90
2024/04/22 04:59:43;;;;;;;0.40;0.40;;;;;;;;;;5321437;26;20243;-90
2024/04/22 05:02:12;;;;;;;0.47;0.47;;;;;;;;;;5348015;26;20302;-90
2024/04/22 05:04:43;;;;;;;0.70;0.70;;;;;;;;;;5349369;26;20344;-91
2024/04/22 05:07:11;;;;;;;0.20;0.20;;;;;;;;;;5349818;26;20302;-90
2024/04/22 05:09:37;;;;;;;0.20;0.20;;;;;;;;;;5320668;26;20402;-90
2024/04/22 05:12:07;;;;;;;0.73;0.73;;;;;;;;;;5320026;26;20276;-91
2024/04/22 05:14:35;;;;;;;0.60;0.33;;;;;;;;;;5321141;26;20228;-91
2024/04/22 05:17:04;;;;;;;0.63;0.63;;;;;;;;;;5310716;26;20334;-89
2024/04/22 05:19:30;;;;;;;0.40;0.40;;;;;;;;;;5320744;26;20368;-88
2024/04/22 05:21:56;;;;;;;0.20;0.20;;;;;;;;;;5320358;26;20334;-86
2024/04/22 05:24:22;;;;;;;0.50;0.50;;;;;;;;;;5378682;26;20260;-88
2024/04/22 05:26:48;;;;;;;4.57;1.53;;;;;;;;;;5415226;26;20269;-88
2024/04/22 05:29:14;;;;;;;1.43;1.13;;;;;;;;;;5385045;26;20258;-86
2024/04/22 05:31:40;;;;;;;22.33;1.23;;;;;;;;;;5415008;26;20307;-89
2024/04/22 05:36:51;;;;;;;0.30;0.30;;;;;;;;;;5415122;26;20691;-87
2024/04/22 05:39:17;;;;;;;0.30;0.30;;;;;;;;;;5385556;26;20227;-87
2024/04/22 05:41:43;;;;;;;0.30;0.30;;;;;;;;;;5385911;26;20231;-87
2024/04/22 05:44:10;;;;;;;1.07;1.07;;;;;;;;;;5314039;26;20288;-88
2024/04/22 05:46:36;;;;;;;0.83;0.83;;;;;;;;;;5285615;26;20288;-89
2024/04/22 05:49:03;;;;;;;1.03;1.03;;;;;;;;;;5314131;26;20374;-91
2024/04/22 05:51:29;;;;;;;0.57;0.57;;;;;;;;;;5285378;26;20303;-85
2024/04/22 05:53:55;;;;;;;1.10;1.07;;;;;;;;;;5286232;26;20233;-89
2024/04/22 05:56:24;;;;;;;2.10;1.17;;;;;;;;;;5286363;26;20713;-86
2024/04/22 05:58:50;;;;;;;0.40;0.40;;;;;;;;;;5285553;26;20257;-86
2024/04/22 06:01:17;;;;;;;0.30;0.30;;;;;;;;;;5285005;26;20265;-89
2024/04/22 06:03:43;;;;;;;2.20;0.77;;;;;;;;;;5285107;26;20321;-87
2024/04/22 06:06:09;;;;;;;0.60;0.60;;;;;;;;;;5313528;26;20315;-88
2024/04/22 06:08:35;;;;;;;0.73;0.50;;;;;;;;;;5314134;26;20277;-88
2024/04/22 06:11:01;;;;;;;0.77;0.77;;;;;;;;;;5285198;26;20269;-86
2024/04/22 06:13:27;;;;;;;1.57;0.50;;;;;;;;;;5284748;26;20788;-86
2024/04/22 06:15:53;;;;;;;0.70;0.53;;;;;;;;;;5362694;26;20714;-84
2024/04/22 06:18:20;;;;;;;0.60;0.60;;;;;;;;;;5384687;26;20266;-88
2024/04/22 06:20:46;;;;;;;0.37;0.37;;;;;;;;;;5385088;26;20231;-88
2024/04/22 06:23:12;;;;;;;1.33;1.23;;;;;;;;;;5377851;26;20262;-87
2024/04/22 06:25:38;;;;;;;0.67;0.67;;;;;;;;;;5385294;26;20289;-87
2024/04/22 06:28:04;;;;;;;0.70;0.70;;;;;;;;;;5384605;26;20255;-87
2024/04/22 06:30:30;;;;;;;0.50;0.50;;;;;;;;;;5356031;26;20301;-86
2024/04/22 06:32:56;;;;;;;0.40;0.40;;;;;;;;;;5385464;26;20231;-89
2024/04/22 06:35:23;;;;;;;0.63;0.63;;;;;;;;;;5385319;26;20289;-90
2024/04/22 06:37:49;;;;;;;0.87;0.87;;;;;;;;;;5356088;26;20267;-89
2024/04/22 06:40:15;;;;;;;1.47;1.23;;;;;;;;;;5384447;26;20355;-88
2024/04/22 06:42:41;;;;;;;0.40;0.40;;;;;;;;;;5357816;26;20367;-87
2024/04/22 06:45:07;;;;;;;0.57;0.40;;;;;;;;;;5360044;26;20258;-88
2024/04/22 06:47:33;;;;;;;1.23;0.40;;;;;;;;;;5414260;26;20231;-88
2024/04/22 06:50:00;;;;;;;0.53;0.53;;;;;;;;;;5384654;26;20348;-86
2024/04/22 06:52:26;;;;;;;1.03;1.00;;;;;;;;;;5413993;26;20267;-88
2024/04/22 06:54:55;;;;;;;1.40;0.80;;;;;;;;;;5383933;26;20263;-86
2024/04/22 06:57:21;;;;;;;0.67;0.67;;;;;;;;;;5347948;26;20425;-87
2024/04/22 06:59:50;;;;;;;3.37;0.73;;;;;;;;;;5319054;26;20314;-87
2024/04/22 07:02:16;;;;;;;0.30;0.30;;;;;;;;;;5318666;26;20264;-85
2024/04/22 07:04:42;;;;;;;0.70;0.70;;;;;;;;;;5290631;26;20402;-88
2024/04/22 07:07:08;;;;;;;0.43;0.43;;;;;;;;;;5319196;26;20260;-87
2024/04/22 07:09:34;;;;;;;0.53;0.53;;;;;;;;;;5319092;26;20294;-87
2024/04/22 07:12:00;;;;;;;0.77;0.53;;;;;;;;;;5319273;26;20236;-87
2024/04/22 07:14:26;;;;;;;0.40;0.40;;;;;;;;;;5319094;26;20341;-84
2024/04/22 07:16:53;;;;;;;0.63;0.63;;;;;;;;;;5376286;26;20260;-87
2024/04/22 07:19:19;;;;;;;0.50;0.50;;;;;;;;;;5347462;26;20268;-87
2024/04/22 07:21:45;;;;;;;0.23;0.23;;;;;;;;;;5318589;26;20267;-87
2024/04/22 07:24:12;;;;;;;0.60;0.60;;;;;;;;;;5377084;26;20240;-87
2024/04/22 07:26:38;;;;;;;0.87;0.87;;;;;;;;;;5322503;26;20228;-88
2024/04/22 07:29:04;;;;;;;0.97;0.97;;;;;;;;;;5372292;26;20316;-87
2024/04/22 07:31:33;;;;;;;0.20;0.20;;;;;;;;;;5359617;26;20321;-87
2024/04/22 07:34:00;;;;;;;0.30;0.30;;;;;;;;;;5386761;26;20352;-89
2024/04/22 07:36:36;;;;;;;0.33;0.33;;;;;;;;;;5416644;26;20298;-86
2024/04/22 07:39:03;;;;;;;1.13;0.83;;;;;;;;;;5358005;26;20265;-87
2024/04/22 07:41:30;;;;;;;1.00;0.80;;;;;;;;;;5358725;26;20231;-88
2024/04/22 07:43:56;;;;;;;0.73;0.73;;;;;;;;;;5411850;26;20304;-86
2024/04/22 07:46:22;;;;;;;0.50;0.50;;;;;;;;;;5387048;26;20293;-87
2024/04/22 07:48:48;;;;;;;0.40;0.40;;;;;;;;;;5315970;26;20354;-87
2024/04/22 07:51:15;;;;;;;1.67;0.60;;;;;;;;;;5315810;26;20264;-89
2024/04/22 07:53:41;;;;;;;0.37;0.33;;;;;;;;;;5316010;26;20278;-90
2024/04/22 07:56:14;;;;;;;0.87;0.63;;;;;;;;;;5306139;26;20709;-87
2024/04/22 07:58:40;;;;;;;2.63;1.17;;;;;;;;;;5315027;26;20685;-87
2024/04/22 08:01:10;;;;;;;0.60;0.60;;;;;;;;;;5315802;26;20302;-88
2024/04/22 08:03:37;;;;;;;1.27;1.13;;;;;;;;;;5315595;26;20265;-87
2024/04/22 08:06:05;;;;;;;0.67;0.67;;;;;;;;;;5309750;27;20227;-90
2024/04/22 08:08:31;;;;;;;0.40;0.40;;;;;;;;;;5281955;27;20317;-87
2024/04/22 08:10:57;;;;;;;0.80;0.47;;;;;;;;;;5281166;27;20745;-86
2024/04/22 08:13:23;;;;;;;0.80;0.70;;;;;;;;;;5281784;27;20363;-87
2024/04/22 08:15:49;;;;;;;0.50;0.50;;;;;;;;;;5269848;27;20263;-86
2024/04/22 08:18:17;;;;;;;1.70;0.63;;;;;;;;;;5247142;27;20266;-86
2024/04/22 08:20:43;;;;;;;1.23;1.23;;;;;;;;;;5306845;26;20335;-88
2024/04/22 08:23:09;;;;;;;0.23;0.23;;;;;;;;;;5315563;26;20299;-87
2024/04/22 08:25:35;;;;;;;0.57;0.57;;;;;;;;;;5332639;26;20299;-87
2024/04/22 08:28:01;;;;;;;0.43;0.43;;;;;;;;;;5315900;26;20328;-87
2024/04/22 08:30:28;;;;;;;0.77;0.67;;;;;;;;;;5287283;26;20264;-88
2024/04/22 08:32:57;;;;;;;1.57;1.17;;;;;;;;;;5287917;26;20277;-87
2024/04/22 08:35:23;;;;;;;0.80;0.70;;;;;;;;;;5286859;26;20399;-88
2024/04/22 08:37:49;;;;;;;1.23;0.77;;;;;;;;;;5392907;26;20263;-87
2024/04/22 08:40:16;;;;;;;0.90;0.90;;;;;;;;;;5385954;26;20714;-86
2024/04/22 08:42:42;;;;;;;4.90;0.70;;;;;;;;;;5357393;26;20294;-86
2024/04/22 08:45:08;;;;;;;0.50;0.50;;;;;;;;;;5386467;26;20262;-85
2024/04/22 08:47:34;;;;;;;1.40;1.30;;;;;;;;;;5387202;26;20231;-87
2024/04/22 08:50:00;;;;;;;1.03;0.97;;;;;;;;;;5357129;26;20279;-86
2024/04/22 08:52:26;;;;;;;1.53;1.27;;;;;;;;;;5357285;26;20263;-86
2024/04/22 08:54:52;;;;;;;0.50;0.50;;;;;;;;;;5356802;26;20266;-86
2024/04/22 08:57:18;;;;;;;1.03;0.67;;;;;;;;;;5415690;26;20265;-86
2024/04/22 08:59:47;;;;;;;2.07;1.23;;;;;;;;;;5378779;26;20322;-86
2024/04/22 09:02:14;;;;;;;0.73;0.73;;;;;;;;;;5288702;26;20818;-86
2024/04/22 09:04:41;;;;;;;1.17;0.67;;;;;;;;;;5314817;26;20328;-86
2024/04/22 09:07:17;;;;;;;0.90;0.73;;;;;;;;;;5286810;26;20273;-86
2024/04/22 09:09:46;;;;;;;0.50;0.50;;;;;;;;;;5314931;26;20261;-86
2024/04/22 09:12:19;;;;;;;1.07;1.07;;;;;;;;;;5314512;26;20245;-87
2024/04/22 09:14:57;;;;;;;0.27;0.23;;;;;;;;;;5287399;26;20225;-85
2024/04/22 09:17:23;;;;;;;0.60;0.60;;;;;;;;;;5314964;26;20346;-87
2024/04/22 09:19:49;;;;;;;1.53;1.47;;;;;;;;;;5295958;26;20345;-88
2024/04/22 09:22:16;;;;;;;1.67;1.20;;;;;;;;;;5316448;26;20666;-86
2024/04/22 09:24:48;;;;;;;0.53;0.53;;;;;;;;;;5286056;26;20287;-90
2024/04/22 09:27:14;;;;;;;0.40;0.40;;;;;;;;;;5314658;26;20345;-86
2024/04/22 09:29:43;;;;;;;0.80;0.80;;;;;;;;;;5289787;26;20233;-88
2024/04/22 09:32:14;;;;;;;0.63;0.63;;;;;;;;;;5350545;26;20614;-87
2024/04/22 09:34:41;;;;;;;0.30;0.30;;;;;;;;;;5350647;26;20298;-88
2024/04/22 09:37:08;;;;;;;0.60;0.57;;;;;;;;;;5321476;26;20268;-90
2024/04/22 09:39:34;;;;;;;0.43;0.43;;;;;;;;;;5350942;26;20366;-87
2024/04/22 09:42:02;;;;;;;0.70;0.70;;;;;;;;;;5350977;26;20266;-84
2024/04/22 09:44:28;;;;;;;2.40;0.50;;;;;;;;;;5380301;26;20235;-89
2024/04/22 09:46:54;;;;;;;0.40;0.40;;;;;;;;;;5342366;26;20257;-90
2024/04/22 09:49:21;;;;;;;0.30;0.30;;;;;;;;;;5285834;26;20304;-87
2024/04/22 09:51:47;;;;;;;0.40;0.40;;;;;;;;;;5285749;26;20360;-86
2024/04/22 09:54:13;;;;;;;0.43;0.40;;;;;;;;;;5285385;26;20225;-87
2024/04/22 09:56:42;;;;;;;2.40;0.60;;;;;;;;;;5286429;26;20267;-87
2024/04/22 09:59:09;;;;;;;0.40;0.30;;;;;;;;;;5277109;26;20693;-87
2024/04/22 10:01:35;;;;;;;3.03;1.60;;;;;;;;;;5314152;26;20261;-88
2024/04/22 10:04:01;;;;;;;0.43;0.43;;;;;;;;;;5313886;26;20276;-88
2024/04/22 10:06:28;;;;;;;1.17;0.90;;;;;;;;;;5286085;26;20347;-87
2024/04/22 10:08:54;;;;;;;0.50;0.50;;;;;;;;;;5286200;26;20269;-88
2024/04/22 10:11:25;;;;;;;0.60;0.60;;;;;;;;;;5286986;26;20291;-89
2024/04/22 10:13:52;;;;;;;0.80;0.80;;;;;;;;;;5259646;26;20740;-86
2024/04/22 10:16:18;;;;;;;0.93;0.90;;;;;;;;;;5286202;26;20260;-90
2024/04/22 10:18:45;;;;;;;2.47;0.60;;;;;;;;;;5315189;26;20315;-89
2024/04/22 10:21:11;;;;;;;0.33;0.33;;;;;;;;;;5320271;26;20228;-91
2024/04/22 10:23:38;;;;;;;0.40;0.40;;;;;;;;;;5320907;26;20224;-90
2024/04/22 10:26:15;;;;;;;4.57;0.40;;;;;;;;;;5348956;26;20410;-89
2024/04/22 10:28:41;;;;;;;0.40;0.40;;;;;;;;;;5319458;26;20356;-90
2024/04/22 10:31:07;;;;;;;1.27;0.60;;;;;;;;;;5348169;26;20277;-91
2024/04/22 10:33:33;;;;;;;0.27;0.27;;;;;;;;;;5348477;26;20268;-89
2024/04/22 10:35:59;;;;;;;0.40;0.40;;;;;;;;;;5347009;26;20601;-87
2024/04/22 10:38:25;;;;;;;0.90;0.53;;;;;;;;;;5350646;26;20274;-89
2024/04/22 10:40:51;;;;;;;1.13;0.60;;;;;;;;;;5349892;26;20263;-90
2024/04/22 10:43:18;;;;;;;0.70;0.70;;;;;;;;;;5321348;26;20260;-90
2024/04/22 10:45:45;;;;;;;0.30;0.30;;;;;;;;;;5313791;26;20302;-91
2024/04/22 10:48:11;;;;;;;3.00;0.67;;;;;;;;;;5316543;26;20225;-89
2024/04/22 10:50:42;;;;;;;0.47;0.47;;;;;;;;;;5349070;26;20262;-89
2024/04/22 10:53:08;;;;;;;2.13;0.60;;;;;;;;;;5247137;27;20260;-91
2024/04/22 10:55:35;;;;;;;1.90;0.70;;;;;;;;;;5246479;27;20301;-90
2024/04/22 10:58:01;;;;;;;1.73;0.50;;;;;;;;;;5246992;27;20310;-88
2024/04/22 11:00:27;;;;;;;0.43;0.40;;;;;;;;;;5250067;27;20342;-88
2024/04/22 11:02:53;;;;;;;0.90;0.90;;;;;;;;;;5223709;27;20255;-88
2024/04/22 11:05:19;;;;;;;0.30;0.30;;;;;;;;;;5280066;27;20330;-90
2024/04/22 11:07:45;;;;;;;1.60;0.90;;;;;;;;;;5218634;27;20276;-89
2024/04/22 11:10:11;;;;;;;1.33;1.23;;;;;;;;;;5246226;27;20344;-88
2024/04/22 11:12:38;;;;;;;1.30;1.03;;;;;;;;;;5246789;27;20641;-89
2024/04/22 11:15:07;;;;;;;0.60;0.60;;;;;;;;;;5246174;27;20346;-88
2024/04/22 11:17:33;;;;;;;1.37;0.70;;;;;;;;;;5302348;27;20242;-88
2024/04/22 11:20:06;;;;;;;0.67;0.67;;;;;;;;;;5313871;26;20349;-90
2024/04/22 11:22:32;;;;;;;0.20;0.20;;;;;;;;;;5315587;27;20270;-90
2024/04/22 11:25:02;;;;;;;16.60;1.07;;;;;;;;;;5346447;26;20264;-90
2024/04/22 11:27:28;;;;;;;0.20;0.20;;;;;;;;;;5323379;26;20260;-87
2024/04/22 11:29:54;;;;;;;0.77;0.77;;;;;;;;;;5323549;26;20692;-88
2024/04/22 11:32:21;;;;;;;0.30;0.30;;;;;;;;;;5322535;26;20303;-90
2024/04/22 11:34:47;;;;;;;1.30;0.80;;;;;;;;;;5294876;26;20260;-90
2024/04/22 11:37:13;;;;;;;0.20;0.20;;;;;;;;;;5294211;26;20264;-89
2024/04/22 11:39:39;;;;;;;0.60;0.60;;;;;;;;;;5407848;26;20263;-91
2024/04/22 11:42:05;;;;;;;0.50;0.50;;;;;;;;;;5388042;26;20243;-89
2024/04/22 11:44:31;;;;;;;7.20;0.93;;;;;;;;;;5418181;26;20320;-89
2024/04/22 11:46:58;;;;;;;0.27;0.27;;;;;;;;;;5316341;26;20718;-90
2024/04/22 11:49:24;;;;;;;1.07;0.40;;;;;;;;;;5288444;26;20265;-89
2024/04/22 11:51:50;;;;;;;0.50;0.50;;;;;;;;;;5288170;26;20277;-89
2024/04/22 11:54:16;;;;;;;2.33;0.47;;;;;;;;;;5289073;26;20278;-90
2024/04/22 11:56:42;;;;;;;0.47;0.47;;;;;;;;;;5291106;26;20300;-88
2024/04/22 11:59:11;;;;;;;4.03;1.33;;;;;;;;;;5289940;26;20265;-88
2024/04/22 12:01:37;;;;;;;0.37;0.37;;;;;;;;;;5290469;26;20380;-86
2024/04/22 12:04:04;;;;;;;0.77;0.50;;;;;;;;;;5347879;26;20302;-87
2024/04/22 12:06:30;;;;;;;0.70;0.70;;;;;;;;;;5330372;26;20303;-86
2024/04/22 12:08:56;;;;;;;0.57;0.50;;;;;;;;;;5357576;26;20241;-88
2024/04/22 12:11:23;;;;;;;1.43;0.50;;;;;;;;;;5323126;26;20370;-85
2024/04/22 12:13:49;;;;;;;0.40;0.40;;;;;;;;;;5289924;26;20280;-86
2024/04/22 12:16:15;;;;;;;0.30;0.30;;;;;;;;;;5290368;26;20292;-91
2024/04/22 12:18:41;;;;;;;0.20;0.20;;;;;;;;;;5394431;26;20296;-88
2024/04/22 12:21:08;;;;;;;0.20;0.20;;;;;;;;;;5358410;26;20232;-88
2024/04/22 12:23:34;;;;;;;0.80;0.43;;;;;;;;;;5417419;26;20278;-89
2024/04/22 12:26:00;;;;;;;0.20;0.20;;;;;;;;;;5315855;26;20446;-87
2024/04/22 12:28:26;;;;;;;0.30;0.30;;;;;;;;;;5315989;26;20261;-89
2024/04/22 12:30:52;;;;;;;0.97;0.80;;;;;;;;;;5316245;26;20316;-87
2024/04/22 12:53:44;;;;;;;0.50;0.50;;;10.50;1.00;;;;;;6520601;21;1415577;-90
2024/04/22 12:56:11;;;;;;;0.50;0.50;;;10.50;23.70;;;;;;6523438;22;20268;-89
2024/04/22 12:58:37;;;;;;;0.57;0.57;;;10.40;1.00;;;;;;6512679;22;20252;-90
2024/04/22 13:01:04;;;;;;;0.27;0.27;;;10.60;1.00;;;;;;6436394;22;20238;-90
2024/04/22 13:03:30;;;;;;;0.60;0.60;;;10.80;1.00;;;;;;6472065;22;20240;-90
2024/04/22 13:05:56;;;;;;;0.40;0.40;;;11.00;1.00;;;;;;6482817;22;20237;-91
2024/04/22 13:08:22;;;;;;;1.33;0.40;;;11.00;1.00;;;;;;6522722;22;20272;-92
2024/04/22 13:10:51;;;;;;;0.40;0.40;;;11.10;1.00;;;;;;6449163;22;20269;-92
2024/04/22 13:13:16;;;;;;;0.40;0.40;;;10.70;1.00;;;;;;6384061;22;20749;-93
2024/04/22 13:15:42;;;;;;;0.57;0.40;;;10.80;1.00;;;;;;6345975;22;20241;-92
2024/04/22 13:18:08;;;;;;;1.03;0.67;;;10.20;1.00;;;;;;6298202;22;20357;-91
2024/04/22 13:20:34;;;;;;;0.23;0.23;;;10.50;1.00;;;;;;6368792;22;20268;-92
2024/04/22 13:23:00;;;;;;;1.07;0.50;;;10.70;1.00;;;;;;6337758;22;20268;-90
2024/04/22 13:25:26;;;;;;;0.40;0.40;;;10.60;1.00;;;;;;6335059;22;20296;-88
2024/04/22 13:27:54;;;;;;;0.50;0.50;;;10.70;1.00;;;;;;6334088;22;20312;-91
2024/04/22 13:30:23;;;;;;;0.30;0.30;;;10.00;1.00;;;;;;6256655;22;20665;-93
2024/04/22 13:32:50;;;;;;;0.40;0.40;;;9.70;1.00;;;;;;6375601;22;20324;-93
2024/04/22 13:35:17;;;;;;;0.40;0.40;;;10.00;1.00;;;;;;6293006;22;20269;-93
2024/04/22 13:37:45;;;;;;;12.93;0.60;;;10.20;1.00;;;;;;6344588;22;20295;-91
2024/04/22 13:40:14;;;;;;;0.90;0.90;;;10.10;1.00;;;;;;6373566;22;20268;-92
2024/04/22 13:42:40;;;;;;;0.70;0.70;;;10.10;1.00;;;;;;6295994;22;20309;-92
2024/04/22 13:45:06;;;;;;;0.40;0.40;;;10.10;1.00;;;;;;6377076;22;20320;-90
2024/04/22 13:47:32;;;;;;;0.67;0.40;;;10.10;1.00;;;;;;6376006;22;20718;-90
2024/04/22 13:50:09;;;;;;;0.50;0.50;;;10.40;1.00;;;;;;6262563;22;20371;-91
2024/04/22 13:52:35;;;;;;;3.20;0.63;;;10.40;1.00;;;;;;6357098;22;20285;-91
2024/04/22 13:55:00;;;;;;;0.57;0.37;;;10.40;1.00;;;;;;6439003;22;20246;-90
2024/04/22 13:57:26;;;;;;;0.70;0.70;;;10.50;1.00;;;;;;6445618;22;20323;-90
2024/04/22 13:59:52;;;;;;;0.93;0.70;;;10.60;1.00;;;;;;6474849;22;20266;-91
2024/04/22 14:02:18;;;;;;;1.20;0.63;;;10.50;1.00;;;;;;6477517;22;20371;-90
2024/04/22 14:04:44;;;;;;;0.57;0.27;;;10.30;1.00;;;;;;6433854;22;20296;-91
2024/04/22 14:07:14;;;;;;;0.40;0.40;;;10.00;1.00;;;;;;6436573;22;20257;-90
2024/04/22 14:09:41;;;;;;;0.30;0.30;;;9.70;1.00;;;;;;6393157;22;20317;-90
2024/04/22 14:12:07;;;;;;;0.40;0.40;;;10.10;1.00;;;;;;6475713;22;20726;-90
2024/04/22 14:14:32;;;;;;;0.77;0.70;;;10.40;1.00;;;;;;6423716;22;20259;-90
2024/04/22 14:16:58;;;;;;;0.97;0.53;;;10.50;1.00;;;;;;6407249;22;20257;-90
2024/04/22 14:19:24;;;;;;;0.67;0.33;;;10.60;1.00;;;;;;6432722;22;20314;-91
2024/04/22 14:21:50;;;;;;;1.93;0.83;;;10.40;1.00;;;;;;6431040;21;20238;-91
2024/04/22 14:24:16;;;;;;;0.40;0.40;;;9.90;1.00;;;;;;6433681;22;20281;-91
2024/04/22 14:26:42;;;;;;;0.40;0.40;;;9.90;1.00;;;;;;6475041;22;20266;-90
2024/04/22 14:29:08;;;;;;;0.90;0.90;;;10.20;1.00;;;;;;6432386;22;20292;-91
2024/04/22 14:31:33;;;;;;;0.90;0.80;;;10.00;1.00;;;;;;6432614;22;20613;-90
2024/04/22 14:34:01;;;;;;;0.60;0.60;;;10.10;1.00;;;;;;6432915;21;20264;-91
2024/04/22 14:36:27;;;;;;;1.33;0.90;;;10.30;1.00;;;;;;6476186;22;20238;-91
2024/04/22 14:38:52;;;;;;;1.57;0.50;;;10.40;1.00;;;;;;6432511;22;20299;-91
2024/04/22 14:41:18;;;;;;;0.40;0.37;;;10.40;1.00;;;;;;6433779;22;20265;-90
2024/04/22 14:43:44;;;;;;;1.40;0.43;;;10.50;1.00;;;;;;6476027;22;20262;-91
2024/04/22 14:46:10;;;;;;;0.53;0.53;;;10.40;1.00;;;;;;6519252;21;20550;-91
2024/04/22 14:48:36;;;;;;;0.50;0.50;;;10.30;1.00;;;;;;6434926;22;20682;-93
2024/04/22 14:51:02;;;;;;;0.40;0.40;;;9.90;1.00;;;;;;6433380;22;20737;-90